createdAt,value
2022-07-31T00:01:26.068Z,4.97
2022-07-31T00:06:30.034Z,5.80
2022-07-31T00:11:33.735Z,6.40
2022-07-31T00:16:38.625Z,5.00
2022-07-31T00:21:42.219Z,5.80
2022-07-31T00:26:45.807Z,3.90
2022-07-31T00:31:51.056Z,4.45
2022-07-31T00:36:54.648Z,6.90
2022-07-31T00:41:58.622Z,5.80
2022-07-31T00:47:04.794Z,3.97
2022-07-31T00:52:09.263Z,3.10
2022-07-31T00:57:13.620Z,4.30
2022-07-31T01:02:18.742Z,3.72
2022-07-31T01:07:22.308Z,4.20
2022-07-31T01:12:35.122Z,3.97
2022-07-31T01:17:41.543Z,5.15
2022-07-31T01:23:17.604Z,3.50
2022-07-31T01:29:03.542Z,2.23
2022-07-31T01:34:15.980Z,3.42
2022-07-31T01:39:21.124Z,3.85
2022-07-31T01:44:29.012Z,5.47
2022-07-31T01:49:34.423Z,18.17
2022-07-31T01:54:39.340Z,2.53
2022-07-31T01:59:47.582Z,4.88
2022-07-31T02:04:57.408Z,4.13
2022-07-31T02:10:01.279Z,5.05
2022-07-31T02:15:14.682Z,3.53
2022-07-31T02:20:21.803Z,4.53
2022-07-31T02:25:28.526Z,3.33
2022-07-31T02:30:38.884Z,3.80
2022-07-31T02:35:45.927Z,5.15
2022-07-31T02:40:56.664Z,4.47
2022-07-31T02:46:02.189Z,4.38
2022-07-31T02:51:06.936Z,5.05
2022-07-31T02:56:13.420Z,1.92
2022-07-31T03:06:23.632Z,3.17
2022-07-31T03:11:27.735Z,2.95
2022-07-31T03:16:34.156Z,3.08
2022-07-31T03:21:39.967Z,6.53
2022-07-31T03:26:44.189Z,2.20
2022-07-31T03:31:49.296Z,3.75
2022-07-31T03:36:53.743Z,1.92
2022-07-31T03:41:59.505Z,2.38
2022-07-31T03:47:04.987Z,2.35
2022-07-31T03:52:12.242Z,4.18
2022-07-31T03:57:17.920Z,4.57
2022-07-31T04:02:27.458Z,7.72
2022-07-31T04:07:40.253Z,3.47
2022-07-31T04:12:44.221Z,2.65
2022-07-31T04:17:49.480Z,7.07
2022-07-31T04:22:58.050Z,2.00
2022-07-31T04:28:24.665Z,1.23
2022-07-31T04:33:29.873Z,3.85
2022-07-31T04:38:33.501Z,4.82
2022-07-31T04:43:37.217Z,4.28
2022-07-31T04:48:43.576Z,2.22
2022-07-31T04:53:51.249Z,2.70
2022-07-31T04:58:56.778Z,1.58
2022-07-31T05:04:02.463Z,3.95
2022-07-31T05:09:09.415Z,1.83
2022-07-31T05:14:17.898Z,2.80
2022-07-31T05:19:29.673Z,3.43
2022-07-31T05:25:10.202Z,4.05
2022-07-31T05:30:15.019Z,3.45
2022-07-31T05:35:20.201Z,3.15
2022-07-31T05:40:24.079Z,4.05
2022-07-31T05:45:47.073Z,6.10
2022-07-31T05:50:53.298Z,3.70
2022-07-31T05:55:57.064Z,4.63
2022-07-31T06:01:17.496Z,6.30
2022-07-31T06:06:23.163Z,3.88
2022-07-31T06:11:27.462Z,4.25
2022-07-31T06:16:31.346Z,5.38
2022-07-31T06:21:36.547Z,5.32
2022-07-31T06:26:40.152Z,3.03
2022-07-31T06:31:43.894Z,2.83
2022-07-31T06:36:49.052Z,4.65
2022-07-31T06:41:55.340Z,3.35
2022-07-31T06:47:05.461Z,5.22
2022-07-31T06:52:33.841Z,5.22
2022-07-31T06:57:39.118Z,4.13
2022-07-31T07:02:43.335Z,4.07
2022-07-31T07:07:48.678Z,6.00
2022-07-31T07:12:54.176Z,4.85
2022-07-31T07:17:58.818Z,6.60
2022-07-31T07:23:19.367Z,4.97
2022-07-31T07:28:30.923Z,5.35
2022-07-31T07:33:41.167Z,13.00
2022-07-31T07:38:56.644Z,9.85
2022-07-31T07:44:00.680Z,7.38
2022-07-31T07:49:06.782Z,9.35
2022-07-31T07:54:11.964Z,5.70
2022-07-31T07:59:48.204Z,6.82
2022-07-31T08:05:17.828Z,5.88
2022-07-31T08:10:22.909Z,5.53
2022-07-31T08:15:32.375Z,5.20
2022-07-31T08:21:02.088Z,5.68
2022-07-31T08:26:08.706Z,4.63
2022-07-31T08:31:12.548Z,5.57
2022-07-31T08:36:29.308Z,3.67
2022-07-31T08:41:34.730Z,4.30
2022-07-31T08:46:41.354Z,9.13
2022-07-31T08:51:51.159Z,5.13
2022-07-31T08:57:27.215Z,7.88
2022-07-31T09:02:32.565Z,6.63
2022-07-31T09:08:06.597Z,4.82
2022-07-31T09:13:20.603Z,5.05
2022-07-31T09:18:27.230Z,6.28
2022-07-31T09:23:47.614Z,4.57
2022-07-31T09:28:53.459Z,5.88
2022-07-31T09:33:57.351Z,4.72
2022-07-31T09:39:35.959Z,4.30
2022-07-31T09:44:59.814Z,4.80
2022-07-31T09:50:06.625Z,5.70
2022-07-31T09:55:17.067Z,6.28
2022-07-31T10:00:26.675Z,7.10
2022-07-31T10:05:31.877Z,14.80
2022-07-31T10:10:38.752Z,23.60
2022-07-31T10:16:02.281Z,18.08
2022-07-31T10:21:39.128Z,29.80
2022-07-31T10:27:01.621Z,88.30
2022-07-31T10:32:09.013Z,267.25
2022-07-31T10:37:26.100Z,266.73
2022-07-31T10:43:20.518Z,114.60
2022-07-31T10:48:54.319Z,69.45
2022-07-31T10:54:42.197Z,50.88
2022-07-31T11:00:13.409Z,36.42
2022-07-31T11:06:01.096Z,24.58
2022-07-31T11:11:36.818Z,17.55
2022-07-31T11:17:00.869Z,15.48
2022-07-31T11:22:30.544Z,12.68
2022-07-31T11:27:36.531Z,9.20
2022-07-31T11:32:40.175Z,8.47
2022-07-31T11:37:56.943Z,11.48
2022-07-31T11:48:27.912Z,5.60
2022-07-31T11:53:41.582Z,6.60
2022-07-31T11:58:49.677Z,5.15
2022-07-31T12:03:53.933Z,7.10
2022-07-31T12:08:59.141Z,5.63
2022-07-31T12:14:02.849Z,4.53
2022-07-31T12:19:06.427Z,4.70
2022-07-31T12:24:15.874Z,5.27
2022-07-31T12:29:20.377Z,5.30
2022-07-31T12:34:32.081Z,4.28
2022-07-31T12:39:59.212Z,3.88
2022-07-31T12:45:19.200Z,5.40
2022-07-31T12:50:25.987Z,5.15
2022-07-31T12:55:34.764Z,4.13
2022-07-31T13:00:40.332Z,4.07
2022-07-31T13:05:44.085Z,4.70
2022-07-31T13:10:49.211Z,4.68
2022-07-31T13:15:53.490Z,4.47
2022-07-31T13:20:57.278Z,3.58
2022-07-31T13:26:02.352Z,7.53
2022-07-31T13:31:06.220Z,4.78
2022-07-31T13:36:10.044Z,3.20
2022-07-31T13:41:30.891Z,3.72
2022-07-31T13:46:34.537Z,2.95
2022-07-31T13:51:39.637Z,4.20
2022-07-31T13:56:44.798Z,2.95
2022-07-31T14:02:05.136Z,4.55
2022-07-31T14:07:09.819Z,2.70
2022-07-31T14:12:17.927Z,3.13
2022-07-31T14:17:21.464Z,2.40
2022-07-31T14:22:25.183Z,1.92
2022-07-31T14:27:30.503Z,2.38
2022-07-31T14:32:34.304Z,2.50
2022-07-31T14:37:38.149Z,2.78
2022-07-31T14:42:43.771Z,3.30
2022-07-31T14:47:47.446Z,3.35
2022-07-31T14:52:51.184Z,3.28
2022-07-31T14:57:56.397Z,3.15
2022-07-31T15:03:00.141Z,2.65
2022-07-31T15:08:04.061Z,3.80
2022-07-31T15:13:09.106Z,4.47
2022-07-31T15:18:12.948Z,3.17
2022-07-31T15:23:16.529Z,2.55
2022-07-31T15:28:21.613Z,4.50
2022-07-31T15:33:25.392Z,4.38
2022-07-31T15:38:29.191Z,5.30
2022-07-31T15:43:37.568Z,3.35
2022-07-31T15:48:45.223Z,2.25
2022-07-31T15:53:48.966Z,3.38
2022-07-31T15:58:54.319Z,3.22
2022-07-31T16:03:57.942Z,3.92
2022-07-31T16:09:03.107Z,2.15
2022-07-31T16:14:10.388Z,2.72
2022-07-31T16:24:20.343Z,2.85
2022-07-31T16:29:57.871Z,3.35
2022-07-31T16:34:53.330Z,2.78
2022-07-31T16:39:59.784Z,3.13
2022-07-31T16:45:06.128Z,3.75
2022-07-31T16:50:11.004Z,2.03
2022-07-31T16:55:14.609Z,3.17
2022-07-31T17:00:20.062Z,4.68
2022-07-31T17:05:23.781Z,3.80
2022-07-31T17:10:27.978Z,3.88
2022-07-31T17:15:34.271Z,4.63
2022-07-31T17:20:39.417Z,2.75
2022-07-31T17:25:47.269Z,2.58
2022-07-31T17:30:54.653Z,3.80
2022-07-31T17:35:59.583Z,2.97
2022-07-31T17:41:04.384Z,2.63
2022-07-31T17:46:17.388Z,3.25
2022-07-31T17:51:26.008Z,2.75
2022-07-31T17:56:30.607Z,7.22
2022-07-31T18:01:36.516Z,5.70
2022-07-31T18:06:40.354Z,4.97
2022-07-31T18:11:44.134Z,3.30
2022-07-31T18:16:49.612Z,3.17
2022-07-31T18:21:55.881Z,3.45
2022-07-31T18:26:59.544Z,2.42
2022-07-31T18:32:05.452Z,3.25
2022-07-31T18:37:09.301Z,2.17
2022-07-31T18:42:13.023Z,3.13
2022-07-31T18:47:18.138Z,3.95
2022-07-31T18:52:21.766Z,2.35
2022-07-31T18:57:25.293Z,2.92
2022-07-31T19:02:30.412Z,3.03
2022-07-31T19:07:37.319Z,3.25
2022-07-31T19:12:41.042Z,2.53
2022-07-31T19:17:46.194Z,3.90
2022-07-31T19:22:50.173Z,2.47
2022-07-31T19:27:53.838Z,1.52
2022-07-31T19:33:01.172Z,2.92
2022-07-31T19:38:05.521Z,2.20
2022-07-31T19:43:10.303Z,2.25
2022-07-31T19:48:15.542Z,2.22
2022-07-31T19:53:19.158Z,2.20
2022-07-31T19:58:24.059Z,2.42
2022-07-31T20:03:29.696Z,4.22
2022-07-31T20:08:34.051Z,12.00
2022-07-31T20:13:38.757Z,8.32
2022-07-31T20:18:44.166Z,8.95
2022-07-31T20:23:49.078Z,6.75
2022-07-31T20:28:52.941Z,7.22
2022-07-31T20:33:58.439Z,8.88
2022-07-31T20:39:01.973Z,6.82
2022-07-31T20:44:06.240Z,9.35
2022-07-31T20:49:19.588Z,5.78
2022-07-31T20:54:35.130Z,6.70
2022-07-31T20:59:38.973Z,4.20
2022-07-31T21:04:44.116Z,2.47
2022-07-31T21:09:48.437Z,4.03
2022-07-31T21:14:52.068Z,5.45
2022-07-31T21:19:56.995Z,3.10
2022-07-31T21:25:04.452Z,4.32
2022-07-31T21:30:10.406Z,3.00
2022-07-31T21:35:17.275Z,6.55
2022-07-31T21:40:41.352Z,3.20
2022-07-31T21:45:55.038Z,2.55
2022-07-31T21:51:02.307Z,4.18
2022-07-31T21:56:10.738Z,4.10
2022-07-31T22:01:15.415Z,3.20
2022-07-31T22:06:38.245Z,8.13
2022-07-31T22:11:41.808Z,9.30
2022-07-31T22:16:59.213Z,5.93
2022-07-31T22:22:05.388Z,5.13
2022-07-31T22:27:27.060Z,8.03
2022-07-31T22:32:31.395Z,4.80
2022-07-31T22:37:37.058Z,3.90
2022-07-31T22:42:41.140Z,2.15
2022-07-31T22:47:46.063Z,3.70
2022-07-31T22:52:51.048Z,3.80
2022-07-31T22:57:54.554Z,4.60
2022-07-31T23:02:58.266Z,3.85
2022-07-31T23:08:03.148Z,3.38
2022-07-31T23:13:06.637Z,2.38
2022-07-31T23:18:10.270Z,3.20
2022-07-31T23:23:15.130Z,2.45
2022-07-31T23:28:18.599Z,2.20
2022-07-31T23:33:22.169Z,2.55
2022-07-31T23:38:28.099Z,2.20
2022-07-31T23:43:31.718Z,4.70
2022-07-31T23:48:36.863Z,5.45
2022-07-31T23:53:44.435Z,4.35
2022-07-31T23:58:48.538Z,6.18
